sensor_id;sensor_type;location;lat;lon;timestamp;P1;durP1;ratioP1;P2;durP2;ratioP2
22191;SDS011;11261;52.456;10.850;2022-11-04T00:02:05;8.63;;;3.63;;
22191;SDS011;11261;52.456;10.850;2022-11-04T00:04:35;6.05;;;3.33;;
22191;SDS011;11261;52.456;10.850;2022-11-04T00:07:04;7.95;;;3.70;;
22191;SDS011;11261;52.456;10.850;2022-11-04T00:09:54;5.40;;;2.90;;
22191;SDS011;11261;52.456;10.850;2022-11-04T00:12:22;7.43;;;3.65;;
22191;SDS011;11261;52.456;10.850;2022-11-04T00:14:52;6.20;;;3.55;;
22191;SDS011;11261;52.456;10.850;2022-11-04T00:17:40;5.82;;;3.17;;
22191;SDS011;11261;52.456;10.850;2022-11-04T00:20:07;5.45;;;3.92;;
22191;SDS011;11261;52.456;10.850;2022-11-04T00:22:55;7.65;;;3.47;;
22191;SDS011;11261;52.456;10.850;2022-11-04T00:25:40;8.15;;;3.70;;
22191;SDS011;11261;52.456;10.850;2022-11-04T00:28:26;11.60;;;3.72;;
22191;SDS011;11261;52.456;10.850;2022-11-04T00:31:10;8.07;;;3.75;;
22191;SDS011;11261;52.456;10.850;2022-11-04T00:34:08;5.95;;;3.78;;
22191;SDS011;11261;52.456;10.850;2022-11-04T00:36:36;5.07;;;3.33;;
22191;SDS011;11261;52.456;10.850;2022-11-04T00:39:05;5.82;;;3.00;;
22191;SDS011;11261;52.456;10.850;2022-11-04T00:41:33;6.82;;;3.70;;
22191;SDS011;11261;52.456;10.850;2022-11-04T00:44:03;7.63;;;3.33;;
22191;SDS011;11261;52.456;10.850;2022-11-04T00:46:31;9.52;;;4.47;;
22191;SDS011;11261;52.456;10.850;2022-11-04T00:49:00;7.78;;;3.63;;
22191;SDS011;11261;52.456;10.850;2022-11-04T00:51:28;8.13;;;4.25;;
22191;SDS011;11261;52.456;10.850;2022-11-04T00:53:56;8.23;;;3.55;;
22191;SDS011;11261;52.456;10.850;2022-11-04T00:56:26;7.07;;;3.38;;
22191;SDS011;11261;52.456;10.850;2022-11-04T00:58:54;4.38;;;3.05;;
22191;SDS011;11261;52.456;10.850;2022-11-04T01:01:22;7.97;;;4.38;;
22191;SDS011;11261;52.456;10.850;2022-11-04T01:03:51;6.13;;;3.65;;
22191;SDS011;11261;52.456;10.850;2022-11-04T01:06:21;7.07;;;3.50;;
22191;SDS011;11261;52.456;10.850;2022-11-04T01:08:54;5.60;;;3.88;;
22191;SDS011;11261;52.456;10.850;2022-11-04T01:11:22;9.35;;;4.35;;
22191;SDS011;11261;52.456;10.850;2022-11-04T01:13:52;7.75;;;4.10;;
22191;SDS011;11261;52.456;10.850;2022-11-04T01:16:21;6.75;;;2.80;;
22191;SDS011;11261;52.456;10.850;2022-11-04T01:18:50;7.40;;;3.85;;
22191;SDS011;11261;52.456;10.850;2022-11-04T01:21:18;6.43;;;3.70;;
22191;SDS011;11261;52.456;10.850;2022-11-04T01:23:47;9.27;;;4.20;;
22191;SDS011;11261;52.456;10.850;2022-11-04T01:26:16;5.68;;;3.20;;
22191;SDS011;11261;52.456;10.850;2022-11-04T01:28:45;6.50;;;3.20;;
22191;SDS011;11261;52.456;10.850;2022-11-04T01:31:15;7.28;;;4.07;;
22191;SDS011;11261;52.456;10.850;2022-11-04T01:33:46;6.65;;;3.20;;
22191;SDS011;11261;52.456;10.850;2022-11-04T01:36:15;5.55;;;3.60;;
22191;SDS011;11261;52.456;10.850;2022-11-04T01:38:44;6.30;;;3.75;;
22191;SDS011;11261;52.456;10.850;2022-11-04T01:41:15;5.88;;;3.97;;
22191;SDS011;11261;52.456;10.850;2022-11-04T01:43:48;6.63;;;3.60;;
22191;SDS011;11261;52.456;10.850;2022-11-04T01:46:26;7.75;;;3.75;;
22191;SDS011;11261;52.456;10.850;2022-11-04T01:49:01;5.72;;;3.65;;
22191;SDS011;11261;52.456;10.850;2022-11-04T01:51:35;6.65;;;3.85;;
22191;SDS011;11261;52.456;10.850;2022-11-04T01:54:06;8.68;;;5.30;;
22191;SDS011;11261;52.456;10.850;2022-11-04T01:56:36;5.45;;;3.53;;
22191;SDS011;11261;52.456;10.850;2022-11-04T01:59:08;6.00;;;3.42;;
22191;SDS011;11261;52.456;10.850;2022-11-04T02:01:43;6.53;;;3.83;;
22191;SDS011;11261;52.456;10.850;2022-11-04T02:04:12;8.85;;;4.47;;
22191;SDS011;11261;52.456;10.850;2022-11-04T02:06:54;7.57;;;4.18;;
22191;SDS011;11261;52.456;10.850;2022-11-04T02:09:24;6.25;;;3.50;;
22191;SDS011;11261;52.456;10.850;2022-11-04T02:11:54;6.03;;;4.55;;
22191;SDS011;11261;52.456;10.850;2022-11-04T02:14:40;7.93;;;3.50;;
22191;SDS011;11261;52.456;10.850;2022-11-04T02:17:13;5.95;;;4.05;;
22191;SDS011;11261;52.456;10.850;2022-11-04T02:23:05;7.43;;;4.13;;
22191;SDS011;11261;52.456;10.850;2022-11-04T02:26:03;7.13;;;4.03;;
22191;SDS011;11261;52.456;10.850;2022-11-04T02:29:11;8.18;;;4.25;;
22191;SDS011;11261;52.456;10.850;2022-11-04T02:31:53;6.70;;;3.22;;
22191;SDS011;11261;52.456;10.850;2022-11-04T02:34:31;5.65;;;3.60;;
22191;SDS011;11261;52.456;10.850;2022-11-04T02:37:07;5.43;;;3.25;;
22191;SDS011;11261;52.456;10.850;2022-11-04T02:39:42;5.82;;;3.53;;
22191;SDS011;11261;52.456;10.850;2022-11-04T02:42:20;7.03;;;3.50;;
22191;SDS011;11261;52.456;10.850;2022-11-04T02:44:58;5.88;;;3.67;;
22191;SDS011;11261;52.456;10.850;2022-11-04T02:47:37;5.85;;;3.20;;
22191;SDS011;11261;52.456;10.850;2022-11-04T02:50:09;4.57;;;3.17;;
22191;SDS011;11261;52.456;10.850;2022-11-04T02:52:42;7.10;;;3.47;;
22191;SDS011;11261;52.456;10.850;2022-11-04T02:55:17;10.63;;;3.40;;
22191;SDS011;11261;52.456;10.850;2022-11-04T02:57:49;8.07;;;3.30;;
22191;SDS011;11261;52.456;10.850;2022-11-04T03:00:23;5.43;;;2.25;;
22191;SDS011;11261;52.456;10.850;2022-11-04T03:02:52;4.80;;;2.60;;
22191;SDS011;11261;52.456;10.850;2022-11-04T03:05:24;5.13;;;2.70;;
22191;SDS011;11261;52.456;10.850;2022-11-04T03:07:57;6.00;;;2.92;;
22191;SDS011;11261;52.456;10.850;2022-11-04T03:10:30;5.60;;;2.72;;
22191;SDS011;11261;52.456;10.850;2022-11-04T03:13:04;4.68;;;2.92;;
22191;SDS011;11261;52.456;10.850;2022-11-04T03:15:38;4.28;;;2.30;;
22191;SDS011;11261;52.456;10.850;2022-11-04T03:18:11;4.43;;;2.05;;
22191;SDS011;11261;52.456;10.850;2022-11-04T03:20:47;3.05;;;2.17;;
22191;SDS011;11261;52.456;10.850;2022-11-04T03:23:16;6.68;;;3.20;;
22191;SDS011;11261;52.456;10.850;2022-11-04T03:25:46;4.53;;;3.00;;
22191;SDS011;11261;52.456;10.850;2022-11-04T03:28:19;4.45;;;2.63;;
22191;SDS011;11261;52.456;10.850;2022-11-04T03:30:55;3.90;;;2.25;;
22191;SDS011;11261;52.456;10.850;2022-11-04T03:33:31;8.05;;;3.40;;
22191;SDS011;11261;52.456;10.850;2022-11-04T03:36:05;3.85;;;2.90;;
22191;SDS011;11261;52.456;10.850;2022-11-04T03:38:35;5.30;;;2.90;;
22191;SDS011;11261;52.456;10.850;2022-11-04T03:41:06;5.47;;;2.65;;
22191;SDS011;11261;52.456;10.850;2022-11-04T03:43:39;7.22;;;2.92;;
22191;SDS011;11261;52.456;10.850;2022-11-04T03:46:09;4.47;;;2.92;;
22191;SDS011;11261;52.456;10.850;2022-11-04T03:48:37;4.53;;;2.50;;
22191;SDS011;11261;52.456;10.850;2022-11-04T03:51:07;3.75;;;2.63;;
22191;SDS011;11261;52.456;10.850;2022-11-04T03:53:36;5.68;;;2.97;;
22191;SDS011;11261;52.456;10.850;2022-11-04T03:56:12;5.53;;;2.60;;
22191;SDS011;11261;52.456;10.850;2022-11-04T03:58:58;5.55;;;2.90;;
22191;SDS011;11261;52.456;10.850;2022-11-04T04:01:38;4.80;;;3.25;;
22191;SDS011;11261;52.456;10.850;2022-11-04T04:04:15;7.78;;;2.60;;
22191;SDS011;11261;52.456;10.850;2022-11-04T04:06:49;4.47;;;2.45;;
22191;SDS011;11261;52.456;10.850;2022-11-04T04:09:22;5.53;;;2.33;;
22191;SDS011;11261;52.456;10.850;2022-11-04T04:11:53;3.20;;;2.33;;
22191;SDS011;11261;52.456;10.850;2022-11-04T04:14:27;4.70;;;2.50;;
22191;SDS011;11261;52.456;10.850;2022-11-04T04:17:09;3.90;;;2.50;;
22191;SDS011;11261;52.456;10.850;2022-11-04T04:19:44;6.28;;;2.20;;
22191;SDS011;11261;52.456;10.850;2022-11-04T04:22:16;5.10;;;2.38;;
22191;SDS011;11261;52.456;10.850;2022-11-04T04:24:47;4.00;;;2.30;;
22191;SDS011;11261;52.456;10.850;2022-11-04T04:27:50;3.85;;;2.30;;
22191;SDS011;11261;52.456;10.850;2022-11-04T04:30:19;4.63;;;2.22;;
22191;SDS011;11261;52.456;10.850;2022-11-04T04:32:49;3.17;;;2.50;;
22191;SDS011;11261;52.456;10.850;2022-11-04T04:35:25;3.28;;;2.00;;
22191;SDS011;11261;52.456;10.850;2022-11-04T04:38:14;2.10;;;1.70;;
22191;SDS011;11261;52.456;10.850;2022-11-04T04:41:05;4.15;;;2.25;;
22191;SDS011;11261;52.456;10.850;2022-11-04T04:43:55;4.10;;;2.15;;
22191;SDS011;11261;52.456;10.850;2022-11-04T04:46:42;4.65;;;2.28;;
22191;SDS011;11261;52.456;10.850;2022-11-04T04:49:16;4.85;;;1.70;;
22191;SDS011;11261;52.456;10.850;2022-11-04T04:51:44;3.13;;;1.90;;
22191;SDS011;11261;52.456;10.850;2022-11-04T04:54:14;4.22;;;1.85;;
22191;SDS011;11261;52.456;10.850;2022-11-04T04:56:42;2.50;;;1.73;;
22191;SDS011;11261;52.456;10.850;2022-11-04T04:59:10;2.00;;;1.40;;
22191;SDS011;11261;52.456;10.850;2022-11-04T05:01:38;2.80;;;1.45;;
22191;SDS011;11261;52.456;10.850;2022-11-04T05:04:06;2.15;;;1.63;;
22191;SDS011;11261;52.456;10.850;2022-11-04T05:06:36;2.70;;;1.40;;
22191;SDS011;11261;52.456;10.850;2022-11-04T05:09:04;2.33;;;1.58;;
22191;SDS011;11261;52.456;10.850;2022-11-04T05:11:32;2.45;;;1.58;;
22191;SDS011;11261;52.456;10.850;2022-11-04T05:14:01;1.90;;;1.50;;
22191;SDS011;11261;52.456;10.850;2022-11-04T05:16:29;2.90;;;1.48;;
22191;SDS011;11261;52.456;10.850;2022-11-04T05:19:04;2.15;;;1.40;;
22191;SDS011;11261;52.456;10.850;2022-11-04T05:21:33;1.90;;;1.40;;
22191;SDS011;11261;52.456;10.850;2022-11-04T05:24:03;2.75;;;1.23;;
22191;SDS011;11261;52.456;10.850;2022-11-04T05:26:31;3.13;;;1.30;;
22191;SDS011;11261;52.456;10.850;2022-11-04T05:28:59;1.77;;;1.45;;
22191;SDS011;11261;52.456;10.850;2022-11-04T05:31:27;1.88;;;1.20;;
22191;SDS011;11261;52.456;10.850;2022-11-04T05:33:55;3.38;;;1.30;;
22191;SDS011;11261;52.456;10.850;2022-11-04T05:36:24;1.48;;;1.05;;
22191;SDS011;11261;52.456;10.850;2022-11-04T05:38:52;4.40;;;1.30;;
22191;SDS011;11261;52.456;10.850;2022-11-04T05:41:22;2.05;;;1.42;;
22191;SDS011;11261;52.456;10.850;2022-11-04T05:43:54;3.55;;;1.60;;
22191;SDS011;11261;52.456;10.850;2022-11-04T05:46:23;1.73;;;1.25;;
22191;SDS011;11261;52.456;10.850;2022-11-04T05:48:51;2.28;;;1.48;;
22191;SDS011;11261;52.456;10.850;2022-11-04T05:51:21;2.40;;;1.50;;
22191;SDS011;11261;52.456;10.850;2022-11-04T05:53:50;2.38;;;1.40;;
22191;SDS011;11261;52.456;10.850;2022-11-04T05:56:18;0.93;;;0.82;;
22191;SDS011;11261;52.456;10.850;2022-11-04T05:58:47;2.03;;;1.48;;
22191;SDS011;11261;52.456;10.850;2022-11-04T06:01:23;2.05;;;1.63;;
22191;SDS011;11261;52.456;10.850;2022-11-04T06:03:53;2.70;;;1.40;;
22191;SDS011;11261;52.456;10.850;2022-11-04T06:06:22;3.25;;;1.85;;
22191;SDS011;11261;52.456;10.850;2022-11-04T06:08:52;1.95;;;1.60;;
22191;SDS011;11261;52.456;10.850;2022-11-04T06:11:21;3.05;;;1.98;;
22191;SDS011;11261;52.456;10.850;2022-11-04T06:13:53;2.88;;;1.80;;
22191;SDS011;11261;52.456;10.850;2022-11-04T06:16:22;2.13;;;1.58;;
22191;SDS011;11261;52.456;10.850;2022-11-04T06:18:51;1.40;;;1.30;;
22191;SDS011;11261;52.456;10.850;2022-11-04T06:21:23;2.40;;;2.08;;
22191;SDS011;11261;52.456;10.850;2022-11-04T06:23:54;2.00;;;1.55;;
22191;SDS011;11261;52.456;10.850;2022-11-04T06:26:23;1.75;;;1.35;;
22191;SDS011;11261;52.456;10.850;2022-11-04T06:28:55;2.97;;;1.98;;
22191;SDS011;11261;52.456;10.850;2022-11-04T06:31:24;2.22;;;1.88;;
22191;SDS011;11261;52.456;10.850;2022-11-04T06:33:52;1.70;;;1.42;;
22191;SDS011;11261;52.456;10.850;2022-11-04T06:36:20;1.70;;;1.55;;
22191;SDS011;11261;52.456;10.850;2022-11-04T06:38:48;1.90;;;1.50;;
22191;SDS011;11261;52.456;10.850;2022-11-04T06:41:17;2.75;;;1.65;;
22191;SDS011;11261;52.456;10.850;2022-11-04T06:43:45;2.70;;;1.80;;
22191;SDS011;11261;52.456;10.850;2022-11-04T06:46:28;3.55;;;1.98;;
22191;SDS011;11261;52.456;10.850;2022-11-04T06:49:00;3.00;;;1.60;;
22191;SDS011;11261;52.456;10.850;2022-11-04T06:51:29;1.55;;;1.40;;
22191;SDS011;11261;52.456;10.850;2022-11-04T06:53:57;4.20;;;1.58;;
22191;SDS011;11261;52.456;10.850;2022-11-04T06:56:25;2.10;;;1.88;;
22191;SDS011;11261;52.456;10.850;2022-11-04T06:58:54;3.38;;;1.98;;
22191;SDS011;11261;52.456;10.850;2022-11-04T07:01:23;3.75;;;1.55;;
22191;SDS011;11261;52.456;10.850;2022-11-04T07:03:56;2.35;;;1.77;;
22191;SDS011;11261;52.456;10.850;2022-11-04T07:06:25;4.55;;;1.90;;
22191;SDS011;11261;52.456;10.850;2022-11-04T07:08:55;2.95;;;1.60;;
22191;SDS011;11261;52.456;10.850;2022-11-04T07:11:26;1.80;;;1.45;;
22191;SDS011;11261;52.456;10.850;2022-11-04T07:13:57;2.55;;;2.00;;
22191;SDS011;11261;52.456;10.850;2022-11-04T07:16:25;2.35;;;1.65;;
22191;SDS011;11261;52.456;10.850;2022-11-04T07:18:55;2.58;;;1.77;;
22191;SDS011;11261;52.456;10.850;2022-11-04T07:21:23;5.93;;;1.88;;
22191;SDS011;11261;52.456;10.850;2022-11-04T07:23:51;4.63;;;1.92;;
22191;SDS011;11261;52.456;10.850;2022-11-04T07:26:19;2.70;;;2.17;;
22191;SDS011;11261;52.456;10.850;2022-11-04T07:28:48;1.67;;;1.30;;
22191;SDS011;11261;52.456;10.850;2022-11-04T07:31:16;2.00;;;1.50;;
22191;SDS011;11261;52.456;10.850;2022-11-04T07:33:44;1.83;;;1.40;;
22191;SDS011;11261;52.456;10.850;2022-11-04T07:36:17;2.75;;;1.90;;
22191;SDS011;11261;52.456;10.850;2022-11-04T07:38:45;2.83;;;1.80;;
22191;SDS011;11261;52.456;10.850;2022-11-04T07:41:15;4.03;;;1.65;;
22191;SDS011;11261;52.456;10.850;2022-11-04T07:43:46;6.60;;;1.90;;
22191;SDS011;11261;52.456;10.850;2022-11-04T07:46:15;1.77;;;1.23;;
22191;SDS011;11261;52.456;10.850;2022-11-04T07:48:44;3.88;;;1.45;;
22191;SDS011;11261;52.456;10.850;2022-11-04T07:51:13;2.08;;;1.80;;
22191;SDS011;11261;52.456;10.850;2022-11-04T07:53:44;3.58;;;1.70;;
22191;SDS011;11261;52.456;10.850;2022-11-04T07:56:12;2.55;;;1.67;;
22191;SDS011;11261;52.456;10.850;2022-11-04T07:58:41;2.47;;;1.55;;
22191;SDS011;11261;52.456;10.850;2022-11-04T08:01:10;2.75;;;1.42;;
22191;SDS011;11261;52.456;10.850;2022-11-04T08:03:40;1.73;;;1.63;;
22191;SDS011;11261;52.456;10.850;2022-11-04T08:06:09;1.85;;;1.30;;
22191;SDS011;11261;52.456;10.850;2022-11-04T08:08:38;4.40;;;1.58;;
22191;SDS011;11261;52.456;10.850;2022-11-04T08:11:09;1.67;;;1.33;;
22191;SDS011;11261;52.456;10.850;2022-11-04T08:13:43;2.15;;;1.40;;
22191;SDS011;11261;52.456;10.850;2022-11-04T08:16:13;1.67;;;1.20;;
22191;SDS011;11261;52.456;10.850;2022-11-04T08:18:42;1.10;;;0.98;;
22191;SDS011;11261;52.456;10.850;2022-11-04T08:21:11;1.55;;;1.10;;
22191;SDS011;11261;52.456;10.850;2022-11-04T08:23:40;3.15;;;1.30;;
22191;SDS011;11261;52.456;10.850;2022-11-04T08:26:11;1.75;;;1.60;;
22191;SDS011;11261;52.456;10.850;2022-11-04T08:28:41;0.82;;;0.70;;
22191;SDS011;11261;52.456;10.850;2022-11-04T08:31:10;2.20;;;1.65;;
22191;SDS011;11261;52.456;10.850;2022-11-04T08:33:42;1.80;;;1.25;;
22191;SDS011;11261;52.456;10.850;2022-11-04T08:36:11;3.50;;;1.38;;
22191;SDS011;11261;52.456;10.850;2022-11-04T08:38:41;1.38;;;1.08;;
22191;SDS011;11261;52.456;10.850;2022-11-04T08:41:12;1.42;;;1.30;;
22191;SDS011;11261;52.456;10.850;2022-11-04T08:43:41;2.20;;;1.70;;
22191;SDS011;11261;52.456;10.850;2022-11-04T08:46:09;1.85;;;1.33;;
22191;SDS011;11261;52.456;10.850;2022-11-04T08:48:38;3.90;;;1.88;;
22191;SDS011;11261;52.456;10.850;2022-11-04T08:51:10;1.75;;;1.55;;
22191;SDS011;11261;52.456;10.850;2022-11-04T08:53:40;4.55;;;1.88;;
22191;SDS011;11261;52.456;10.850;2022-11-04T08:56:11;5.65;;;1.85;;
22191;SDS011;11261;52.456;10.850;2022-11-04T08:58:41;3.97;;;2.08;;
22191;SDS011;11261;52.456;10.850;2022-11-04T09:01:09;3.42;;;1.92;;
22191;SDS011;11261;52.456;10.850;2022-11-04T09:03:38;2.58;;;1.90;;
22191;SDS011;11261;52.456;10.850;2022-11-04T09:06:08;3.47;;;2.03;;
22191;SDS011;11261;52.456;10.850;2022-11-04T09:08:38;4.30;;;1.88;;
22191;SDS011;11261;52.456;10.850;2022-11-04T09:11:07;3.10;;;1.83;;
22191;SDS011;11261;52.456;10.850;2022-11-04T09:13:38;3.83;;;2.03;;
22191;SDS011;11261;52.456;10.850;2022-11-04T09:16:07;2.97;;;1.85;;
22191;SDS011;11261;52.456;10.850;2022-11-04T09:18:36;2.50;;;1.58;;
22191;SDS011;11261;52.456;10.850;2022-11-04T09:21:05;4.57;;;2.00;;
22191;SDS011;11261;52.456;10.850;2022-11-04T09:23:35;3.10;;;2.03;;
22191;SDS011;11261;52.456;10.850;2022-11-04T09:26:04;0.60;;;0.60;;
22191;SDS011;11261;52.456;10.850;2022-11-04T09:28:33;1.90;;;1.05;;
22191;SDS011;11261;52.456;10.850;2022-11-04T09:31:07;2.58;;;1.95;;
22191;SDS011;11261;52.456;10.850;2022-11-04T09:33:36;2.58;;;2.00;;
22191;SDS011;11261;52.456;10.850;2022-11-04T09:36:04;4.25;;;2.20;;
22191;SDS011;11261;52.456;10.850;2022-11-04T09:38:34;2.80;;;2.00;;
22191;SDS011;11261;52.456;10.850;2022-11-04T09:41:07;3.33;;;1.90;;
22191;SDS011;11261;52.456;10.850;2022-11-04T09:43:50;2.22;;;1.27;;
22191;SDS011;11261;52.456;10.850;2022-11-04T09:46:25;2.25;;;2.00;;
22191;SDS011;11261;52.456;10.850;2022-11-04T09:48:57;2.67;;;1.98;;
22191;SDS011;11261;52.456;10.850;2022-11-04T09:51:29;3.22;;;1.77;;
22191;SDS011;11261;52.456;10.850;2022-11-04T09:54:19;2.95;;;1.90;;
22191;SDS011;11261;52.456;10.850;2022-11-04T09:56:49;2.90;;;1.60;;
22191;SDS011;11261;52.456;10.850;2022-11-04T09:59:20;2.65;;;2.05;;
22191;SDS011;11261;52.456;10.850;2022-11-04T10:01:57;3.72;;;1.33;;
22191;SDS011;11261;52.456;10.850;2022-11-04T10:04:39;8.95;;;2.55;;
22191;SDS011;11261;52.456;10.850;2022-11-04T10:07:20;3.50;;;1.80;;
22191;SDS011;11261;52.456;10.850;2022-11-04T10:10:05;3.88;;;2.20;;
22191;SDS011;11261;52.456;10.850;2022-11-04T10:12:45;3.20;;;1.85;;
22191;SDS011;11261;52.456;10.850;2022-11-04T10:15:39;2.33;;;1.75;;
22191;SDS011;11261;52.456;10.850;2022-11-04T10:18:23;2.53;;;1.98;;
22191;SDS011;11261;52.456;10.850;2022-11-04T10:21:03;4.68;;;2.20;;
22191;SDS011;11261;52.456;10.850;2022-11-04T10:23:39;4.32;;;1.77;;
22191;SDS011;11261;52.456;10.850;2022-11-04T10:26:13;2.67;;;2.03;;
22191;SDS011;11261;52.456;10.850;2022-11-04T10:28:45;4.07;;;1.88;;
22191;SDS011;11261;52.456;10.850;2022-11-04T10:31:17;2.17;;;1.52;;
22191;SDS011;11261;52.456;10.850;2022-11-04T10:33:47;4.30;;;2.33;;
22191;SDS011;11261;52.456;10.850;2022-11-04T10:36:19;4.30;;;2.08;;
22191;SDS011;11261;52.456;10.850;2022-11-04T10:38:49;2.45;;;2.20;;
22191;SDS011;11261;52.456;10.850;2022-11-04T10:41:22;3.50;;;1.80;;
22191;SDS011;11261;52.456;10.850;2022-11-04T10:43:56;4.85;;;1.95;;
22191;SDS011;11261;52.456;10.850;2022-11-04T10:46:35;3.17;;;2.05;;
22191;SDS011;11261;52.456;10.850;2022-11-04T10:49:20;3.85;;;2.33;;
22191;SDS011;11261;52.456;10.850;2022-11-04T10:52:01;7.15;;;2.03;;
22191;SDS011;11261;52.456;10.850;2022-11-04T10:54:37;4.63;;;1.88;;
22191;SDS011;11261;52.456;10.850;2022-11-04T10:57:07;2.13;;;1.92;;
22191;SDS011;11261;52.456;10.850;2022-11-04T10:59:41;4.00;;;2.17;;
22191;SDS011;11261;52.456;10.850;2022-11-04T11:02:17;4.10;;;2.38;;
22191;SDS011;11261;52.456;10.850;2022-11-04T11:05:09;5.28;;;2.60;;
22191;SDS011;11261;52.456;10.850;2022-11-04T11:07:40;1.35;;;1.25;;
22191;SDS011;11261;52.456;10.850;2022-11-04T11:10:15;3.63;;;2.05;;
22191;SDS011;11261;52.456;10.850;2022-11-04T11:12:49;5.68;;;2.40;;
22191;SDS011;11261;52.456;10.850;2022-11-04T11:15:25;2.90;;;1.83;;
22191;SDS011;11261;52.456;10.850;2022-11-04T11:20:47;3.60;;;2.30;;
22191;SDS011;11261;52.456;10.850;2022-11-04T11:23:31;6.15;;;2.38;;
22191;SDS011;11261;52.456;10.850;2022-11-04T11:26:02;2.17;;;1.98;;
22191;SDS011;11261;52.456;10.850;2022-11-04T11:28:32;5.78;;;2.78;;
22191;SDS011;11261;52.456;10.850;2022-11-04T11:31:05;5.00;;;2.70;;
22191;SDS011;11261;52.456;10.850;2022-11-04T11:33:39;3.72;;;1.98;;
22191;SDS011;11261;52.456;10.850;2022-11-04T11:36:17;6.35;;;2.20;;
22191;SDS011;11261;52.456;10.850;2022-11-04T11:38:52;3.78;;;2.58;;
22191;SDS011;11261;52.456;10.850;2022-11-04T11:41:29;2.38;;;1.70;;
22191;SDS011;11261;52.456;10.850;2022-11-04T11:43:59;3.78;;;1.70;;
22191;SDS011;11261;52.456;10.850;2022-11-04T11:46:31;4.40;;;1.85;;
22191;SDS011;11261;52.456;10.850;2022-11-04T11:49:01;2.55;;;2.03;;
22191;SDS011;11261;52.456;10.850;2022-11-04T11:51:33;2.00;;;1.75;;
22191;SDS011;11261;52.456;10.850;2022-11-04T11:54:13;1.77;;;1.52;;
22191;SDS011;11261;52.456;10.850;2022-11-04T11:56:45;2.15;;;1.60;;
22191;SDS011;11261;52.456;10.850;2022-11-04T11:59:38;5.25;;;1.60;;
22191;SDS011;11261;52.456;10.850;2022-11-04T12:02:33;2.97;;;1.92;;
22191;SDS011;11261;52.456;10.850;2022-11-04T12:05:07;2.15;;;1.63;;
22191;SDS011;11261;52.456;10.850;2022-11-04T12:08:01;1.98;;;1.77;;
22191;SDS011;11261;52.456;10.850;2022-11-04T12:11:02;5.28;;;1.77;;
22191;SDS011;11261;52.456;10.850;2022-11-04T12:13:40;2.22;;;1.52;;
22191;SDS011;11261;52.456;10.850;2022-11-04T12:16:19;2.08;;;1.30;;
22191;SDS011;11261;52.456;10.850;2022-11-04T12:19:03;4.18;;;1.40;;
22191;SDS011;11261;52.456;10.850;2022-11-04T12:21:39;2.15;;;1.50;;
22191;SDS011;11261;52.456;10.850;2022-11-04T12:24:18;1.55;;;1.45;;
22191;SDS011;11261;52.456;10.850;2022-11-04T12:26:55;4.00;;;1.48;;
22191;SDS011;11261;52.456;10.850;2022-11-04T12:29:38;2.65;;;1.52;;
22191;SDS011;11261;52.456;10.850;2022-11-04T12:32:20;1.67;;;1.25;;
22191;SDS011;11261;52.456;10.850;2022-11-04T12:35:02;3.30;;;1.60;;
22191;SDS011;11261;52.456;10.850;2022-11-04T12:37:45;2.72;;;1.40;;
22191;SDS011;11261;52.456;10.850;2022-11-04T12:40:24;3.17;;;1.42;;
22191;SDS011;11261;52.456;10.850;2022-11-04T12:43:00;2.72;;;1.23;;
22191;SDS011;11261;52.456;10.850;2022-11-04T12:45:41;3.55;;;1.63;;
22191;SDS011;11261;52.456;10.850;2022-11-04T12:48:27;3.70;;;1.35;;
22191;SDS011;11261;52.456;10.850;2022-11-04T12:51:10;1.55;;;1.30;;
22191;SDS011;11261;52.456;10.850;2022-11-04T12:53:51;2.75;;;1.40;;
22191;SDS011;11261;52.456;10.850;2022-11-04T12:56:29;2.10;;;1.38;;
22191;SDS011;11261;52.456;10.850;2022-11-04T12:59:08;1.27;;;1.17;;
22191;SDS011;11261;52.456;10.850;2022-11-04T13:01:52;2.65;;;1.40;;
22191;SDS011;11261;52.456;10.850;2022-11-04T13:04:24;1.63;;;1.30;;
22191;SDS011;11261;52.456;10.850;2022-11-04T13:06:59;2.03;;;1.42;;
22191;SDS011;11261;52.456;10.850;2022-11-04T13:09:31;2.53;;;1.40;;
22191;SDS011;11261;52.456;10.850;2022-11-04T13:12:06;2.33;;;1.20;;
22191;SDS011;11261;52.456;10.850;2022-11-04T13:14:39;2.83;;;1.35;;
22191;SDS011;11261;52.456;10.850;2022-11-04T13:17:14;2.13;;;1.58;;
22191;SDS011;11261;52.456;10.850;2022-11-04T13:19:45;2.42;;;1.10;;
22191;SDS011;11261;52.456;10.850;2022-11-04T13:22:17;3.25;;;1.13;;
22191;SDS011;11261;52.456;10.850;2022-11-04T13:24:50;2.17;;;1.10;;
22191;SDS011;11261;52.456;10.850;2022-11-04T13:27:24;3.83;;;1.15;;
22191;SDS011;11261;52.456;10.850;2022-11-04T13:29:58;3.40;;;1.13;;
22191;SDS011;11261;52.456;10.850;2022-11-04T13:32:32;1.52;;;1.20;;
22191;SDS011;11261;52.456;10.850;2022-11-04T13:35:07;1.77;;;1.30;;
22191;SDS011;11261;52.456;10.850;2022-11-04T13:37:43;2.75;;;1.10;;
22191;SDS011;11261;52.456;10.850;2022-11-04T13:40:23;1.40;;;1.05;;
22191;SDS011;11261;52.456;10.850;2022-11-04T13:43:01;1.17;;;1.08;;
22191;SDS011;11261;52.456;10.850;2022-11-04T13:46:04;1.48;;;1.23;;
22191;SDS011;11261;52.456;10.850;2022-11-04T13:48:50;1.20;;;1.10;;
22191;SDS011;11261;52.456;10.850;2022-11-04T13:51:27;3.25;;;1.20;;
22191;SDS011;11261;52.456;10.850;2022-11-04T13:54:05;2.67;;;1.50;;
22191;SDS011;11261;52.456;10.850;2022-11-04T13:56:39;2.40;;;1.20;;
22191;SDS011;11261;52.456;10.850;2022-11-04T13:59:18;1.45;;;0.98;;
22191;SDS011;11261;52.456;10.850;2022-11-04T14:01:58;1.90;;;1.30;;
22191;SDS011;11261;52.456;10.850;2022-11-04T14:04:50;2.08;;;1.45;;
22191;SDS011;11261;52.456;10.850;2022-11-04T14:07:23;2.08;;;1.38;;
22191;SDS011;11261;52.456;10.850;2022-11-04T14:10:35;2.00;;;1.30;;
22191;SDS011;11261;52.456;10.850;2022-11-04T14:16:12;2.22;;;1.35;;
22191;SDS011;11261;52.456;10.850;2022-11-04T14:25:19;3.28;;;1.42;;
22191;SDS011;11261;52.456;10.850;2022-11-04T14:27:50;2.40;;;1.38;;
22191;SDS011;11261;52.456;10.850;2022-11-04T14:30:33;1.35;;;1.05;;
22191;SDS011;11261;52.456;10.850;2022-11-04T14:33:18;2.25;;;1.13;;
22191;SDS011;11261;52.456;10.850;2022-11-04T14:36:12;1.42;;;1.30;;
22191;SDS011;11261;52.456;10.850;2022-11-04T14:39:01;2.92;;;1.50;;
22191;SDS011;11261;52.456;10.850;2022-11-04T14:44:23;1.90;;;1.20;;
22191;SDS011;11261;52.456;10.850;2022-11-04T14:46:58;1.65;;;1.17;;
22191;SDS011;11261;52.456;10.850;2022-11-04T14:49:36;1.50;;;1.30;;
22191;SDS011;11261;52.456;10.850;2022-11-04T14:52:12;2.28;;;1.27;;
22191;SDS011;11261;52.456;10.850;2022-11-04T14:54:43;1.33;;;0.98;;
22191;SDS011;11261;52.456;10.850;2022-11-04T14:57:13;1.55;;;1.00;;
22191;SDS011;11261;52.456;10.850;2022-11-04T14:59:42;1.17;;;1.08;;
22191;SDS011;11261;52.456;10.850;2022-11-04T15:02:12;1.77;;;0.90;;
22191;SDS011;11261;52.456;10.850;2022-11-04T15:04:45;1.63;;;1.00;;
22191;SDS011;11261;52.456;10.850;2022-11-04T15:07:31;1.92;;;1.17;;
22191;SDS011;11261;52.456;10.850;2022-11-04T15:10:01;1.55;;;1.00;;
22191;SDS011;11261;52.456;10.850;2022-11-04T15:12:45;1.65;;;1.02;;
22191;SDS011;11261;52.456;10.850;2022-11-04T15:15:31;1.52;;;0.80;;
22191;SDS011;11261;52.456;10.850;2022-11-04T15:18:06;2.45;;;1.10;;
22191;SDS011;11261;52.456;10.850;2022-11-04T15:20:38;1.60;;;1.10;;
22191;SDS011;11261;52.456;10.850;2022-11-04T15:23:13;2.35;;;1.10;;
22191;SDS011;11261;52.456;10.850;2022-11-04T15:25:45;2.15;;;0.90;;
22191;SDS011;11261;52.456;10.850;2022-11-04T15:28:17;1.33;;;0.95;;
22191;SDS011;11261;52.456;10.850;2022-11-04T15:30:55;0.93;;;0.80;;
22191;SDS011;11261;52.456;10.850;2022-11-04T15:33:26;0.82;;;0.80;;